sensor_id;sensor_type;location;lat;lon;timestamp;P1;durP1;ratioP1;P2;durP2;ratioP2
5730;SDS011;2890;51.950;7.668;2023-02-23T00:01:39;60.10;;;42.43;;
5730;SDS011;2890;51.950;7.668;2023-02-23T00:04:06;59.33;;;41.13;;
5730;SDS011;2890;51.950;7.668;2023-02-23T00:06:35;65.03;;;42.53;;
5730;SDS011;2890;51.950;7.668;2023-02-23T00:09:03;62.20;;;44.00;;
5730;SDS011;2890;51.950;7.668;2023-02-23T00:11:36;61.30;;;42.53;;
5730;SDS011;2890;51.950;7.668;2023-02-23T00:14:03;57.93;;;43.07;;
5730;SDS011;2890;51.950;7.668;2023-02-23T00:16:29;62.43;;;44.40;;
5730;SDS011;2890;51.950;7.668;2023-02-23T00:18:57;63.13;;;45.50;;
5730;SDS011;2890;51.950;7.668;2023-02-23T00:21:25;69.20;;;44.73;;
5730;SDS011;2890;51.950;7.668;2023-02-23T00:23:55;61.87;;;43.87;;
5730;SDS011;2890;51.950;7.668;2023-02-23T00:26:23;61.00;;;44.77;;
5730;SDS011;2890;51.950;7.668;2023-02-23T00:28:53;73.13;;;46.87;;
5730;SDS011;2890;51.950;7.668;2023-02-23T00:31:20;72.67;;;47.07;;
5730;SDS011;2890;51.950;7.668;2023-02-23T00:33:49;70.67;;;46.20;;
5730;SDS011;2890;51.950;7.668;2023-02-23T00:36:18;70.07;;;47.03;;
5730;SDS011;2890;51.950;7.668;2023-02-23T00:38:45;73.23;;;48.77;;
5730;SDS011;2890;51.950;7.668;2023-02-23T00:41:14;77.77;;;48.83;;
5730;SDS011;2890;51.950;7.668;2023-02-23T00:43:44;81.40;;;49.90;;
5730;SDS011;2890;51.950;7.668;2023-02-23T00:46:11;86.67;;;51.33;;
5730;SDS011;2890;51.950;7.668;2023-02-23T00:48:40;85.17;;;51.27;;
5730;SDS011;2890;51.950;7.668;2023-02-23T00:51:07;87.30;;;52.30;;
5730;SDS011;2890;51.950;7.668;2023-02-23T00:53:33;91.60;;;51.73;;
5730;SDS011;2890;51.950;7.668;2023-02-23T00:55:59;88.87;;;53.57;;
5730;SDS011;2890;51.950;7.668;2023-02-23T00:58:29;89.90;;;53.00;;
5730;SDS011;2890;51.950;7.668;2023-02-23T01:00:55;88.37;;;52.70;;
5730;SDS011;2890;51.950;7.668;2023-02-23T01:03:23;92.87;;;53.90;;
5730;SDS011;2890;51.950;7.668;2023-02-23T01:05:49;94.57;;;53.37;;
5730;SDS011;2890;51.950;7.668;2023-02-23T01:08:16;97.33;;;55.07;;
5730;SDS011;2890;51.950;7.668;2023-02-23T01:10:43;95.70;;;54.47;;
5730;SDS011;2890;51.950;7.668;2023-02-23T01:13:16;89.07;;;53.53;;
5730;SDS011;2890;51.950;7.668;2023-02-23T01:15:45;96.07;;;55.97;;
5730;SDS011;2890;51.950;7.668;2023-02-23T01:18:13;96.20;;;55.23;;
5730;SDS011;2890;51.950;7.668;2023-02-23T01:20:40;94.40;;;54.23;;
5730;SDS011;2890;51.950;7.668;2023-02-23T01:23:06;95.23;;;54.93;;
5730;SDS011;2890;51.950;7.668;2023-02-23T01:25:33;100.30;;;57.77;;
5730;SDS011;2890;51.950;7.668;2023-02-23T01:28:02;107.23;;;59.30;;
5730;SDS011;2890;51.950;7.668;2023-02-23T01:30:29;110.00;;;58.00;;
5730;SDS011;2890;51.950;7.668;2023-02-23T01:32:56;104.50;;;57.37;;
5730;SDS011;2890;51.950;7.668;2023-02-23T01:35:24;107.07;;;56.90;;
5730;SDS011;2890;51.950;7.668;2023-02-23T01:37:51;112.17;;;61.60;;
5730;SDS011;2890;51.950;7.668;2023-02-23T01:40:18;105.40;;;56.57;;
5730;SDS011;2890;51.950;7.668;2023-02-23T01:42:53;108.27;;;58.80;;
5730;SDS011;2890;51.950;7.668;2023-02-23T01:45:30;109.57;;;61.10;;
5730;SDS011;2890;51.950;7.668;2023-02-23T01:48:01;116.67;;;61.80;;
5730;SDS011;2890;51.950;7.668;2023-02-23T01:50:32;128.67;;;63.70;;
5730;SDS011;2890;51.950;7.668;2023-02-23T01:53:02;117.33;;;62.80;;
5730;SDS011;2890;51.950;7.668;2023-02-23T01:55:29;131.33;;;66.33;;
5730;SDS011;2890;51.950;7.668;2023-02-23T01:57:58;123.73;;;64.97;;
5730;SDS011;2890;51.950;7.668;2023-02-23T02:00:28;127.00;;;64.13;;
5730;SDS011;2890;51.950;7.668;2023-02-23T02:03:03;125.30;;;65.30;;
5730;SDS011;2890;51.950;7.668;2023-02-23T02:05:33;128.30;;;67.23;;
5730;SDS011;2890;51.950;7.668;2023-02-23T02:08:01;140.47;;;69.10;;
5730;SDS011;2890;51.950;7.668;2023-02-23T02:10:30;145.63;;;69.03;;
5730;SDS011;2890;51.950;7.668;2023-02-23T02:13:15;142.00;;;72.50;;
5730;SDS011;2890;51.950;7.668;2023-02-23T02:15:58;144.30;;;71.33;;
5730;SDS011;2890;51.950;7.668;2023-02-23T02:18:35;145.27;;;70.60;;
5730;SDS011;2890;51.950;7.668;2023-02-23T02:21:13;152.37;;;69.27;;
5730;SDS011;2890;51.950;7.668;2023-02-23T02:23:52;158.13;;;70.53;;
5730;SDS011;2890;51.950;7.668;2023-02-23T02:26:30;172.67;;;74.63;;
5730;SDS011;2890;51.950;7.668;2023-02-23T02:29:05;165.80;;;73.93;;
5730;SDS011;2890;51.950;7.668;2023-02-23T02:32:15;163.13;;;75.73;;
5730;SDS011;2890;51.950;7.668;2023-02-23T02:37:49;168.40;;;75.17;;
5730;SDS011;2890;51.950;7.668;2023-02-23T02:40:22;189.70;;;85.50;;
5730;SDS011;2890;51.950;7.668;2023-02-23T02:42:59;173.57;;;78.13;;
5730;SDS011;2890;51.950;7.668;2023-02-23T02:45:33;189.23;;;80.80;;
5730;SDS011;2890;51.950;7.668;2023-02-23T02:48:10;190.43;;;80.83;;
5730;SDS011;2890;51.950;7.668;2023-02-23T02:50:42;178.33;;;81.43;;
5730;SDS011;2890;51.950;7.668;2023-02-23T02:53:13;190.53;;;80.67;;
5730;SDS011;2890;51.950;7.668;2023-02-23T02:55:44;179.83;;;78.63;;
5730;SDS011;2890;51.950;7.668;2023-02-23T02:58:12;202.23;;;82.57;;
5730;SDS011;2890;51.950;7.668;2023-02-23T03:00:39;199.80;;;81.33;;
5730;SDS011;2890;51.950;7.668;2023-02-23T03:03:28;184.07;;;79.00;;
5730;SDS011;2890;51.950;7.668;2023-02-23T03:06:14;185.80;;;84.47;;
5730;SDS011;2890;51.950;7.668;2023-02-23T03:09:00;207.93;;;86.87;;
5730;SDS011;2890;51.950;7.668;2023-02-23T03:11:48;182.47;;;81.37;;
5730;SDS011;2890;51.950;7.668;2023-02-23T03:14:39;174.87;;;77.43;;
5730;SDS011;2890;51.950;7.668;2023-02-23T03:17:29;203.83;;;80.83;;
5730;SDS011;2890;51.950;7.668;2023-02-23T03:20:18;186.50;;;80.87;;
5730;SDS011;2890;51.950;7.668;2023-02-23T03:23:07;196.30;;;82.97;;
5730;SDS011;2890;51.950;7.668;2023-02-23T03:25:57;212.13;;;88.90;;
5730;SDS011;2890;51.950;7.668;2023-02-23T03:28:47;258.53;;;91.87;;
5730;SDS011;2890;51.950;7.668;2023-02-23T03:31:36;217.37;;;86.17;;
5730;SDS011;2890;51.950;7.668;2023-02-23T03:34:23;222.13;;;87.90;;
5730;SDS011;2890;51.950;7.668;2023-02-23T03:37:12;233.70;;;86.63;;
5730;SDS011;2890;51.950;7.668;2023-02-23T03:40:01;215.40;;;86.57;;
5730;SDS011;2890;51.950;7.668;2023-02-23T03:42:50;232.13;;;83.83;;
5730;SDS011;2890;51.950;7.668;2023-02-23T03:45:35;198.50;;;83.50;;
5730;SDS011;2890;51.950;7.668;2023-02-23T03:48:20;216.50;;;85.33;;
5730;SDS011;2890;51.950;7.668;2023-02-23T03:51:05;256.67;;;92.97;;
5730;SDS011;2890;51.950;7.668;2023-02-23T03:53:52;231.70;;;91.00;;
5730;SDS011;2890;51.950;7.668;2023-02-23T03:56:38;208.40;;;89.80;;
5730;SDS011;2890;51.950;7.668;2023-02-23T03:59:28;214.67;;;86.20;;
5730;SDS011;2890;51.950;7.668;2023-02-23T04:02:13;234.10;;;91.60;;
5730;SDS011;2890;51.950;7.668;2023-02-23T04:04:59;244.20;;;96.00;;
5730;SDS011;2890;51.950;7.668;2023-02-23T04:07:45;207.50;;;86.33;;
5730;SDS011;2890;51.950;7.668;2023-02-23T04:10:30;212.37;;;89.30;;
5730;SDS011;2890;51.950;7.668;2023-02-23T04:13:18;268.93;;;99.07;;
5730;SDS011;2890;51.950;7.668;2023-02-23T04:15:49;282.33;;;100.47;;
5730;SDS011;2890;51.950;7.668;2023-02-23T04:18:17;261.87;;;96.53;;
5730;SDS011;2890;51.950;7.668;2023-02-23T04:20:47;263.53;;;95.43;;
5730;SDS011;2890;51.950;7.668;2023-02-23T04:23:13;297.07;;;101.30;;
5730;SDS011;2890;51.950;7.668;2023-02-23T04:25:39;281.83;;;102.60;;
5730;SDS011;2890;51.950;7.668;2023-02-23T04:28:06;314.73;;;106.80;;
5730;SDS011;2890;51.950;7.668;2023-02-23T04:30:32;241.30;;;95.87;;
5730;SDS011;2890;51.950;7.668;2023-02-23T04:33:00;293.83;;;102.30;;
5730;SDS011;2890;51.950;7.668;2023-02-23T04:35:27;217.57;;;95.57;;
5730;SDS011;2890;51.950;7.668;2023-02-23T04:37:55;216.90;;;92.83;;
5730;SDS011;2890;51.950;7.668;2023-02-23T04:40:22;229.17;;;91.57;;
5730;SDS011;2890;51.950;7.668;2023-02-23T04:42:48;264.63;;;96.47;;
5730;SDS011;2890;51.950;7.668;2023-02-23T04:45:15;302.20;;;103.63;;
5730;SDS011;2890;51.950;7.668;2023-02-23T04:47:42;337.87;;;109.53;;
5730;SDS011;2890;51.950;7.668;2023-02-23T04:50:10;261.97;;;99.03;;
5730;SDS011;2890;51.950;7.668;2023-02-23T04:52:37;285.20;;;101.87;;
5730;SDS011;2890;51.950;7.668;2023-02-23T04:55:04;274.80;;;99.37;;
5730;SDS011;2890;51.950;7.668;2023-02-23T04:57:32;288.00;;;102.67;;
5730;SDS011;2890;51.950;7.668;2023-02-23T04:59:59;270.33;;;99.60;;
5730;SDS011;2890;51.950;7.668;2023-02-23T05:02:26;307.77;;;104.97;;
5730;SDS011;2890;51.950;7.668;2023-02-23T05:04:52;236.33;;;94.30;;
5730;SDS011;2890;51.950;7.668;2023-02-23T05:07:20;276.33;;;98.90;;
5730;SDS011;2890;51.950;7.668;2023-02-23T05:09:46;316.87;;;107.30;;
5730;SDS011;2890;51.950;7.668;2023-02-23T05:12:13;311.93;;;106.10;;
5730;SDS011;2890;51.950;7.668;2023-02-23T05:14:40;292.13;;;104.40;;
5730;SDS011;2890;51.950;7.668;2023-02-23T05:17:07;310.63;;;110.17;;
5730;SDS011;2890;51.950;7.668;2023-02-23T05:19:33;284.07;;;106.63;;
5730;SDS011;2890;51.950;7.668;2023-02-23T05:22:00;330.50;;;108.70;;
5730;SDS011;2890;51.950;7.668;2023-02-23T05:24:28;342.07;;;112.00;;
5730;SDS011;2890;51.950;7.668;2023-02-23T05:26:54;360.53;;;114.17;;
5730;SDS011;2890;51.950;7.668;2023-02-23T05:29:21;327.07;;;110.43;;
5730;SDS011;2890;51.950;7.668;2023-02-23T05:31:48;338.40;;;111.40;;
5730;SDS011;2890;51.950;7.668;2023-02-23T05:34:14;298.63;;;105.87;;
5730;SDS011;2890;51.950;7.668;2023-02-23T05:36:41;343.93;;;113.07;;
5730;SDS011;2890;51.950;7.668;2023-02-23T05:39:08;379.07;;;118.30;;
5730;SDS011;2890;51.950;7.668;2023-02-23T05:41:35;379.17;;;115.97;;
5730;SDS011;2890;51.950;7.668;2023-02-23T05:44:02;304.10;;;108.20;;
5730;SDS011;2890;51.950;7.668;2023-02-23T05:46:28;355.67;;;117.30;;
5730;SDS011;2890;51.950;7.668;2023-02-23T05:48:55;323.53;;;112.07;;
5730;SDS011;2890;51.950;7.668;2023-02-23T05:51:23;397.73;;;120.40;;
5730;SDS011;2890;51.950;7.668;2023-02-23T05:53:49;380.90;;;116.03;;
5730;SDS011;2890;51.950;7.668;2023-02-23T05:56:16;350.00;;;115.80;;
5730;SDS011;2890;51.950;7.668;2023-02-23T05:58:46;332.30;;;110.70;;
5730;SDS011;2890;51.950;7.668;2023-02-23T06:01:12;415.17;;;127.43;;
5730;SDS011;2890;51.950;7.668;2023-02-23T06:03:39;382.67;;;119.37;;
5730;SDS011;2890;51.950;7.668;2023-02-23T06:06:05;362.67;;;117.17;;
5730;SDS011;2890;51.950;7.668;2023-02-23T06:08:32;378.60;;;123.60;;
5730;SDS011;2890;51.950;7.668;2023-02-23T06:10:58;387.53;;;119.60;;
5730;SDS011;2890;51.950;7.668;2023-02-23T06:13:25;421.10;;;129.67;;
5730;SDS011;2890;51.950;7.668;2023-02-23T06:15:53;363.00;;;118.83;;
5730;SDS011;2890;51.950;7.668;2023-02-23T06:18:20;377.10;;;123.60;;
5730;SDS011;2890;51.950;7.668;2023-02-23T06:20:47;402.57;;;121.43;;
5730;SDS011;2890;51.950;7.668;2023-02-23T06:23:13;393.20;;;125.40;;
5730;SDS011;2890;51.950;7.668;2023-02-23T06:25:41;379.93;;;121.40;;
5730;SDS011;2890;51.950;7.668;2023-02-23T06:28:08;351.37;;;117.13;;
5730;SDS011;2890;51.950;7.668;2023-02-23T06:30:35;372.37;;;120.27;;
5730;SDS011;2890;51.950;7.668;2023-02-23T06:33:03;368.03;;;121.77;;
5730;SDS011;2890;51.950;7.668;2023-02-23T06:35:30;366.73;;;121.17;;
5730;SDS011;2890;51.950;7.668;2023-02-23T06:37:57;367.00;;;114.60;;
5730;SDS011;2890;51.950;7.668;2023-02-23T06:40:24;345.13;;;115.20;;
5730;SDS011;2890;51.950;7.668;2023-02-23T06:42:50;372.60;;;119.50;;
5730;SDS011;2890;51.950;7.668;2023-02-23T06:45:17;339.73;;;115.10;;
5730;SDS011;2890;51.950;7.668;2023-02-23T06:47:44;349.63;;;117.50;;
5730;SDS011;2890;51.950;7.668;2023-02-23T06:50:12;317.40;;;109.20;;
5730;SDS011;2890;51.950;7.668;2023-02-23T06:52:39;321.27;;;112.73;;
5730;SDS011;2890;51.950;7.668;2023-02-23T06:55:06;335.83;;;115.37;;
5730;SDS011;2890;51.950;7.668;2023-02-23T06:57:33;357.83;;;117.70;;
5730;SDS011;2890;51.950;7.668;2023-02-23T07:00:00;367.27;;;119.10;;
5730;SDS011;2890;51.950;7.668;2023-02-23T07:02:26;336.00;;;109.87;;
5730;SDS011;2890;51.950;7.668;2023-02-23T07:04:53;352.63;;;116.77;;
5730;SDS011;2890;51.950;7.668;2023-02-23T07:07:21;325.57;;;110.77;;
5730;SDS011;2890;51.950;7.668;2023-02-23T07:09:49;385.03;;;117.30;;
5730;SDS011;2890;51.950;7.668;2023-02-23T07:12:16;341.23;;;117.17;;
5730;SDS011;2890;51.950;7.668;2023-02-23T07:14:42;303.20;;;109.70;;
5730;SDS011;2890;51.950;7.668;2023-02-23T07:17:09;363.73;;;119.93;;
5730;SDS011;2890;51.950;7.668;2023-02-23T07:19:38;323.70;;;108.27;;
5730;SDS011;2890;51.950;7.668;2023-02-23T07:22:05;307.53;;;107.60;;
5730;SDS011;2890;51.950;7.668;2023-02-23T07:24:32;347.07;;;118.47;;
5730;SDS011;2890;51.950;7.668;2023-02-23T07:26:59;305.93;;;111.40;;
5730;SDS011;2890;51.950;7.668;2023-02-23T07:29:25;307.80;;;107.20;;
5730;SDS011;2890;51.950;7.668;2023-02-23T07:31:52;316.77;;;114.23;;
5730;SDS011;2890;51.950;7.668;2023-02-23T07:34:19;316.97;;;112.67;;
5730;SDS011;2890;51.950;7.668;2023-02-23T07:36:45;336.60;;;116.63;;
5730;SDS011;2890;51.950;7.668;2023-02-23T07:39:12;346.70;;;114.97;;
5730;SDS011;2890;51.950;7.668;2023-02-23T07:41:40;333.63;;;113.37;;
5730;SDS011;2890;51.950;7.668;2023-02-23T07:44:06;354.00;;;117.53;;
5730;SDS011;2890;51.950;7.668;2023-02-23T07:46:33;314.77;;;112.97;;
5730;SDS011;2890;51.950;7.668;2023-02-23T07:48:59;306.90;;;112.13;;
5730;SDS011;2890;51.950;7.668;2023-02-23T07:51:25;315.00;;;110.63;;
5730;SDS011;2890;51.950;7.668;2023-02-23T07:53:52;313.20;;;107.47;;
5730;SDS011;2890;51.950;7.668;2023-02-23T07:56:19;310.53;;;111.40;;
5730;SDS011;2890;51.950;7.668;2023-02-23T07:58:47;253.03;;;98.83;;
5730;SDS011;2890;51.950;7.668;2023-02-23T08:01:13;246.50;;;94.70;;
5730;SDS011;2890;51.950;7.668;2023-02-23T08:03:39;251.57;;;94.63;;
5730;SDS011;2890;51.950;7.668;2023-02-23T08:06:13;318.00;;;107.53;;
5730;SDS011;2890;51.950;7.668;2023-02-23T08:08:39;283.53;;;101.30;;
5730;SDS011;2890;51.950;7.668;2023-02-23T08:11:06;274.40;;;99.20;;
5730;SDS011;2890;51.950;7.668;2023-02-23T08:13:32;258.37;;;96.93;;
5730;SDS011;2890;51.950;7.668;2023-02-23T08:16:01;278.13;;;99.33;;
5730;SDS011;2890;51.950;7.668;2023-02-23T08:18:28;337.93;;;107.13;;
5730;SDS011;2890;51.950;7.668;2023-02-23T08:20:56;263.40;;;98.17;;
5730;SDS011;2890;51.950;7.668;2023-02-23T08:23:23;276.13;;;100.80;;
5730;SDS011;2890;51.950;7.668;2023-02-23T08:25:49;262.80;;;101.17;;
5730;SDS011;2890;51.950;7.668;2023-02-23T08:28:16;284.37;;;105.47;;
5730;SDS011;2890;51.950;7.668;2023-02-23T08:30:42;259.90;;;95.00;;
5730;SDS011;2890;51.950;7.668;2023-02-23T08:33:10;249.53;;;95.37;;
5730;SDS011;2890;51.950;7.668;2023-02-23T08:35:36;278.27;;;96.20;;
5730;SDS011;2890;51.950;7.668;2023-02-23T08:38:03;295.03;;;101.00;;
5730;SDS011;2890;51.950;7.668;2023-02-23T08:40:29;276.83;;;97.53;;
5730;SDS011;2890;51.950;7.668;2023-02-23T08:42:56;265.20;;;96.67;;
5730;SDS011;2890;51.950;7.668;2023-02-23T08:45:22;280.30;;;94.73;;
5730;SDS011;2890;51.950;7.668;2023-02-23T08:47:49;254.43;;;94.57;;
5730;SDS011;2890;51.950;7.668;2023-02-23T08:50:17;337.83;;;110.43;;
5730;SDS011;2890;51.950;7.668;2023-02-23T08:52:43;358.83;;;121.10;;
5730;SDS011;2890;51.950;7.668;2023-02-23T08:55:10;358.17;;;115.10;;
5730;SDS011;2890;51.950;7.668;2023-02-23T08:57:37;290.30;;;96.37;;
5730;SDS011;2890;51.950;7.668;2023-02-23T09:00:05;270.03;;;90.53;;
5730;SDS011;2890;51.950;7.668;2023-02-23T09:02:37;299.30;;;94.70;;
5730;SDS011;2890;51.950;7.668;2023-02-23T09:05:04;225.60;;;83.50;;
5730;SDS011;2890;51.950;7.668;2023-02-23T09:07:33;229.03;;;83.07;;
5730;SDS011;2890;51.950;7.668;2023-02-23T09:10:00;214.37;;;80.97;;
5730;SDS011;2890;51.950;7.668;2023-02-23T09:12:26;234.63;;;83.83;;
5730;SDS011;2890;51.950;7.668;2023-02-23T09:14:53;256.27;;;87.67;;
5730;SDS011;2890;51.950;7.668;2023-02-23T09:17:19;225.33;;;87.43;;
5730;SDS011;2890;51.950;7.668;2023-02-23T09:19:46;241.87;;;85.77;;
5730;SDS011;2890;51.950;7.668;2023-02-23T09:22:13;260.67;;;89.93;;
5730;SDS011;2890;51.950;7.668;2023-02-23T09:24:43;253.37;;;87.17;;
5730;SDS011;2890;51.950;7.668;2023-02-23T09:27:10;222.67;;;83.07;;
5730;SDS011;2890;51.950;7.668;2023-02-23T09:29:36;256.87;;;89.37;;
5730;SDS011;2890;51.950;7.668;2023-02-23T09:32:05;180.93;;;74.50;;
5730;SDS011;2890;51.950;7.668;2023-02-23T09:34:32;250.20;;;85.47;;
5730;SDS011;2890;51.950;7.668;2023-02-23T09:36:59;228.23;;;79.97;;
5730;SDS011;2890;51.950;7.668;2023-02-23T09:39:26;207.00;;;77.40;;
5730;SDS011;2890;51.950;7.668;2023-02-23T09:41:55;212.43;;;80.43;;
5730;SDS011;2890;51.950;7.668;2023-02-23T09:44:41;200.03;;;76.00;;
5730;SDS011;2890;51.950;7.668;2023-02-23T09:47:16;196.73;;;77.17;;
5730;SDS011;2890;51.950;7.668;2023-02-23T09:49:49;237.87;;;81.07;;
5730;SDS011;2890;51.950;7.668;2023-02-23T09:52:17;206.60;;;77.73;;
5730;SDS011;2890;51.950;7.668;2023-02-23T09:54:45;199.17;;;78.30;;
5730;SDS011;2890;51.950;7.668;2023-02-23T09:57:13;207.17;;;78.47;;
5730;SDS011;2890;51.950;7.668;2023-02-23T09:59:42;201.03;;;77.70;;
5730;SDS011;2890;51.950;7.668;2023-02-23T10:02:14;236.00;;;80.53;;
5730;SDS011;2890;51.950;7.668;2023-02-23T10:04:44;177.70;;;70.77;;
5730;SDS011;2890;51.950;7.668;2023-02-23T10:07:12;197.37;;;74.20;;
5730;SDS011;2890;51.950;7.668;2023-02-23T10:09:43;175.77;;;66.17;;
5730;SDS011;2890;51.950;7.668;2023-02-23T10:12:24;183.13;;;69.43;;
5730;SDS011;2890;51.950;7.668;2023-02-23T10:14:59;177.13;;;67.60;;
5730;SDS011;2890;51.950;7.668;2023-02-23T10:17:33;165.37;;;65.47;;
5730;SDS011;2890;51.950;7.668;2023-02-23T10:20:04;170.47;;;64.73;;
5730;SDS011;2890;51.950;7.668;2023-02-23T10:22:39;145.13;;;58.33;;
5730;SDS011;2890;51.950;7.668;2023-02-23T10:25:07;137.17;;;57.53;;
5730;SDS011;2890;51.950;7.668;2023-02-23T10:27:38;135.47;;;55.47;;
5730;SDS011;2890;51.950;7.668;2023-02-23T10:30:12;143.50;;;56.17;;
5730;SDS011;2890;51.950;7.668;2023-02-23T10:32:44;155.07;;;58.10;;
5730;SDS011;2890;51.950;7.668;2023-02-23T10:35:15;148.23;;;57.23;;
5730;SDS011;2890;51.950;7.668;2023-02-23T10:37:45;163.57;;;57.27;;
5730;SDS011;2890;51.950;7.668;2023-02-23T10:40:13;133.50;;;51.77;;
5730;SDS011;2890;51.950;7.668;2023-02-23T10:42:43;124.67;;;49.97;;
5730;SDS011;2890;51.950;7.668;2023-02-23T10:45:11;128.77;;;49.47;;
5730;SDS011;2890;51.950;7.668;2023-02-23T10:47:46;128.63;;;48.20;;
5730;SDS011;2890;51.950;7.668;2023-02-23T10:50:15;134.37;;;50.80;;
5730;SDS011;2890;51.950;7.668;2023-02-23T10:52:42;120.07;;;47.90;;
5730;SDS011;2890;51.950;7.668;2023-02-23T10:55:18;107.07;;;45.23;;
5730;SDS011;2890;51.950;7.668;2023-02-23T10:57:49;108.73;;;43.13;;
5730;SDS011;2890;51.950;7.668;2023-02-23T11:00:26;126.17;;;45.53;;
5730;SDS011;2890;51.950;7.668;2023-02-23T11:02:54;117.87;;;44.50;;
5730;SDS011;2890;51.950;7.668;2023-02-23T11:05:30;134.10;;;46.77;;
5730;SDS011;2890;51.950;7.668;2023-02-23T11:08:09;137.93;;;51.23;;
5730;SDS011;2890;51.950;7.668;2023-02-23T11:10:37;214.63;;;72.07;;
5730;SDS011;2890;51.950;7.668;2023-02-23T11:13:04;172.77;;;58.90;;
5730;SDS011;2890;51.950;7.668;2023-02-23T11:15:31;150.77;;;52.93;;
5730;SDS011;2890;51.950;7.668;2023-02-23T11:17:59;116.07;;;40.17;;
5730;SDS011;2890;51.950;7.668;2023-02-23T11:20:28;96.60;;;38.10;;
5730;SDS011;2890;51.950;7.668;2023-02-23T11:22:57;95.80;;;35.73;;
5730;SDS011;2890;51.950;7.668;2023-02-23T11:25:24;101.10;;;35.87;;
5730;SDS011;2890;51.950;7.668;2023-02-23T11:27:53;96.37;;;33.33;;
5730;SDS011;2890;51.950;7.668;2023-02-23T11:30:22;81.37;;;32.37;;
5730;SDS011;2890;51.950;7.668;2023-02-23T11:32:53;86.53;;;32.47;;
5730;SDS011;2890;51.950;7.668;2023-02-23T11:35:26;85.77;;;33.57;;
5730;SDS011;2890;51.950;7.668;2023-02-23T11:37:54;86.30;;;32.20;;
5730;SDS011;2890;51.950;7.668;2023-02-23T11:40:22;84.70;;;32.10;;
5730;SDS011;2890;51.950;7.668;2023-02-23T11:42:51;92.90;;;34.40;;
5730;SDS011;2890;51.950;7.668;2023-02-23T11:45:20;85.03;;;32.90;;
5730;SDS011;2890;51.950;7.668;2023-02-23T11:47:49;80.20;;;30.13;;
5730;SDS011;2890;51.950;7.668;2023-02-23T11:50:24;91.53;;;31.23;;
5730;SDS011;2890;51.950;7.668;2023-02-23T11:52:53;81.67;;;30.93;;
5730;SDS011;2890;51.950;7.668;2023-02-23T11:55:22;75.27;;;29.67;;
5730;SDS011;2890;51.950;7.668;2023-02-23T11:57:50;83.30;;;29.30;;
5730;SDS011;2890;51.950;7.668;2023-02-23T12:00:22;70.13;;;27.10;;
5730;SDS011;2890;51.950;7.668;2023-02-23T12:02:51;82.20;;;27.73;;
5730;SDS011;2890;51.950;7.668;2023-02-23T12:05:23;70.00;;;27.50;;
5730;SDS011;2890;51.950;7.668;2023-02-23T12:07:52;76.43;;;30.40;;
5730;SDS011;2890;51.950;7.668;2023-02-23T12:10:22;89.13;;;32.43;;
5730;SDS011;2890;51.950;7.668;2023-02-23T12:12:51;76.83;;;30.10;;
5730;SDS011;2890;51.950;7.668;2023-02-23T12:15:27;78.93;;;28.43;;
5730;SDS011;2890;51.950;7.668;2023-02-23T12:18:01;74.60;;;28.93;;
5730;SDS011;2890;51.950;7.668;2023-02-23T12:20:31;71.10;;;27.17;;
5730;SDS011;2890;51.950;7.668;2023-02-23T12:23:01;65.33;;;25.27;;
5730;SDS011;2890;51.950;7.668;2023-02-23T12:25:32;62.43;;;25.53;;
5730;SDS011;2890;51.950;7.668;2023-02-23T12:28:02;57.03;;;23.10;;
5730;SDS011;2890;51.950;7.668;2023-02-23T12:30:37;58.07;;;24.50;;
5730;SDS011;2890;51.950;7.668;2023-02-23T12:33:09;62.13;;;24.50;;
5730;SDS011;2890;51.950;7.668;2023-02-23T12:35:40;58.93;;;23.93;;
5730;SDS011;2890;51.950;7.668;2023-02-23T12:38:10;53.63;;;22.87;;
5730;SDS011;2890;51.950;7.668;2023-02-23T12:40:42;66.80;;;25.33;;
5730;SDS011;2890;51.950;7.668;2023-02-23T12:43:11;78.23;;;27.17;;
5730;SDS011;2890;51.950;7.668;2023-02-23T12:45:44;69.57;;;26.93;;
5730;SDS011;2890;51.950;7.668;2023-02-23T12:48:14;73.37;;;26.80;;
5730;SDS011;2890;51.950;7.668;2023-02-23T12:50:47;66.40;;;26.73;;
5730;SDS011;2890;51.950;7.668;2023-02-23T12:53:19;65.53;;;26.23;;
5730;SDS011;2890;51.950;7.668;2023-02-23T12:55:50;64.37;;;25.90;;
5730;SDS011;2890;51.950;7.668;2023-02-23T12:58:23;65.03;;;25.77;;
5730;SDS011;2890;51.950;7.668;2023-02-23T13:00:57;56.40;;;23.97;;
5730;SDS011;2890;51.950;7.668;2023-02-23T13:03:32;59.67;;;24.83;;
5730;SDS011;2890;51.950;7.668;2023-02-23T13:06:06;46.50;;;22.03;;
5730;SDS011;2890;51.950;7.668;2023-02-23T13:08:38;50.53;;;22.10;;
5730;SDS011;2890;51.950;7.668;2023-02-23T13:11:13;51.20;;;23.77;;
5730;SDS011;2890;51.950;7.668;2023-02-23T13:13:43;57.83;;;24.37;;
5730;SDS011;2890;51.950;7.668;2023-02-23T13:16:15;61.23;;;27.00;;
5730;SDS011;2890;51.950;7.668;2023-02-23T13:18:44;64.10;;;25.40;;
5730;SDS011;2890;51.950;7.668;2023-02-23T13:21:15;64.47;;;26.13;;
5730;SDS011;2890;51.950;7.668;2023-02-23T13:23:53;60.23;;;25.47;;
5730;SDS011;2890;51.950;7.668;2023-02-23T13:26:23;44.57;;;22.73;;
5730;SDS011;2890;51.950;7.668;2023-02-23T13:28:55;52.03;;;22.13;;
5730;SDS011;2890;51.950;7.668;2023-02-23T13:31:28;58.27;;;23.93;;
5730;SDS011;2890;51.950;7.668;2023-02-23T13:33:57;54.53;;;24.13;;
5730;SDS011;2890;51.950;7.668;2023-02-23T13:36:25;54.27;;;23.93;;
5730;SDS011;2890;51.950;7.668;2023-02-23T13:38:59;53.57;;;24.73;;
5730;SDS011;2890;51.950;7.668;2023-02-23T13:41:35;52.23;;;23.93;;
5730;SDS011;2890;51.950;7.668;2023-02-23T13:44:05;53.73;;;23.27;;
5730;SDS011;2890;51.950;7.668;2023-02-23T13:46:39;51.53;;;22.90;;
5730;SDS011;2890;51.950;7.668;2023-02-23T13:49:14;50.60;;;23.53;;
5730;SDS011;2890;51.950;7.668;2023-02-23T13:51:46;49.03;;;23.30;;
5730;SDS011;2890;51.950;7.668;2023-02-23T13:54:22;64.63;;;26.33;;
5730;SDS011;2890;51.950;7.668;2023-02-23T13:56:51;69.30;;;29.03;;
5730;SDS011;2890;51.950;7.668;2023-02-23T13:59:21;62.40;;;25.57;;
5730;SDS011;2890;51.950;7.668;2023-02-23T14:01:50;66.03;;;25.80;;
5730;SDS011;2890;51.950;7.668;2023-02-23T14:04:20;53.23;;;24.57;;
5730;SDS011;2890;51.950;7.668;2023-02-23T14:06:51;63.10;;;25.23;;
5730;SDS011;2890;51.950;7.668;2023-02-23T14:09:21;74.40;;;27.70;;
5730;SDS011;2890;51.950;7.668;2023-02-23T14:11:50;73.27;;;28.30;;
5730;SDS011;2890;51.950;7.668;2023-02-23T14:14:37;77.77;;;28.47;;
5730;SDS011;2890;51.950;7.668;2023-02-23T14:17:11;79.17;;;28.83;;
5730;SDS011;2890;51.950;7.668;2023-02-23T14:20:11;73.10;;;27.03;;
5730;SDS011;2890;51.950;7.668;2023-02-23T14:25:46;77.83;;;27.33;;
5730;SDS011;2890;51.950;7.668;2023-02-23T14:28:22;82.27;;;29.33;;
5730;SDS011;2890;51.950;7.668;2023-02-23T14:30:57;91.00;;;29.53;;
5730;SDS011;2890;51.950;7.668;2023-02-23T14:33:34;86.40;;;29.53;;
5730;SDS011;2890;51.950;7.668;2023-02-23T14:36:12;73.67;;;27.60;;
5730;SDS011;2890;51.950;7.668;2023-02-23T14:38:57;75.27;;;27.67;;
5730;SDS011;2890;51.950;7.668;2023-02-23T14:41:25;71.37;;;28.87;;
5730;SDS011;2890;51.950;7.668;2023-02-23T14:43:54;84.70;;;30.20;;
5730;SDS011;2890;51.950;7.668;2023-02-23T14:46:24;89.97;;;30.40;;
5730;SDS011;2890;51.950;7.668;2023-02-23T14:48:57;89.17;;;30.53;;
5730;SDS011;2890;51.950;7.668;2023-02-23T14:51:26;83.43;;;29.63;;
5730;SDS011;2890;51.950;7.668;2023-02-23T14:53:57;93.33;;;31.30;;
5730;SDS011;2890;51.950;7.668;2023-02-23T14:56:24;89.43;;;31.23;;
5730;SDS011;2890;51.950;7.668;2023-02-23T14:58:50;81.27;;;30.40;;
5730;SDS011;2890;51.950;7.668;2023-02-23T15:01:34;90.07;;;29.80;;
5730;SDS011;2890;51.950;7.668;2023-02-23T15:04:06;91.77;;;29.40;;